createdAt,value
2018-09-14T00:00:15.102Z,989.10
2018-09-14T00:01:15.292Z,989.09
2018-09-14T00:02:15.483Z,989.13
2018-09-14T00:03:15.678Z,989.11
2018-09-14T00:04:15.866Z,989.13
2018-09-14T00:05:16.056Z,989.13
2018-09-14T00:06:16.245Z,989.10
2018-09-14T00:07:16.435Z,989.10
2018-09-14T00:08:16.626Z,989.13
2018-09-14T00:09:16.817Z,989.13
2018-09-14T00:10:17.013Z,989.14
2018-09-14T00:11:17.202Z,989.14
2018-09-14T00:12:17.394Z,989.14
2018-09-14T00:13:17.588Z,989.17
2018-09-14T00:14:17.774Z,989.20
2018-09-14T00:15:17.967Z,989.18
2018-09-14T00:16:18.154Z,989.15
2018-09-14T00:17:18.350Z,989.16
2018-09-14T00:18:18.547Z,989.18
2018-09-14T00:19:18.730Z,989.20
2018-09-14T00:20:18.923Z,989.15
2018-09-14T00:21:19.113Z,989.17
2018-09-14T00:22:19.302Z,989.15
2018-09-14T00:23:19.494Z,989.13
2018-09-14T00:24:19.686Z,989.16
2018-09-14T00:25:19.877Z,989.10
2018-09-14T00:26:20.066Z,989.12
2018-09-14T00:27:20.260Z,989.12
2018-09-14T00:28:20.448Z,989.12
2018-09-14T00:29:20.639Z,989.11
2018-09-14T00:30:20.828Z,989.10
2018-09-14T00:31:21.025Z,989.09
2018-09-14T00:32:21.209Z,989.08
2018-09-14T00:33:21.403Z,989.05
2018-09-14T00:34:21.593Z,989.06
2018-09-14T00:35:21.782Z,989.06
2018-09-14T00:36:21.974Z,989.06
2018-09-14T00:37:22.165Z,989.07
2018-09-14T00:38:22.357Z,989.04
2018-09-14T00:39:22.545Z,989.05
2018-09-14T00:40:22.737Z,989.02
2018-09-14T00:41:22.931Z,989.04
2018-09-14T00:42:23.119Z,989.03
2018-09-14T00:43:23.308Z,989.03
2018-09-14T00:44:23.495Z,989.04
2018-09-14T00:45:23.685Z,989.00
2018-09-14T00:46:23.873Z,989.01
2018-09-14T00:47:24.060Z,989.01
2018-09-14T00:48:24.252Z,989.02
2018-09-14T00:49:24.444Z,989.02
2018-09-14T00:50:24.629Z,989.01
2018-09-14T00:51:24.822Z,989.06
2018-09-14T00:52:25.011Z,989.04
2018-09-14T00:53:25.206Z,989.02
2018-09-14T00:54:25.405Z,989.04
2018-09-14T00:55:25.586Z,989.03
2018-09-14T00:56:25.773Z,989.07
2018-09-14T00:57:25.962Z,989.01
2018-09-14T00:58:26.150Z,989.03
2018-09-14T00:59:26.334Z,989.04
2018-09-14T01:00:26.525Z,989.03
2018-09-14T01:01:26.718Z,989.03
2018-09-14T01:02:26.903Z,989.03
2018-09-14T01:03:27.099Z,989.05
2018-09-14T01:04:27.297Z,989.10
2018-09-14T01:05:27.483Z,989.10
2018-09-14T01:06:27.670Z,989.06
2018-09-14T01:07:27.865Z,989.08
2018-09-14T01:08:28.055Z,989.10
2018-09-14T01:09:28.247Z,989.11
2018-09-14T01:10:28.435Z,989.08
2018-09-14T01:11:28.627Z,989.06
2018-09-14T01:12:28.816Z,989.06
2018-09-14T01:13:29.005Z,989.01
2018-09-14T01:14:29.196Z,989.02
2018-09-14T01:15:29.380Z,988.97
2018-09-14T01:16:29.574Z,989.00
2018-09-14T01:17:29.764Z,988.98
2018-09-14T01:18:29.951Z,988.95
2018-09-14T01:19:30.143Z,988.92
2018-09-14T01:20:30.333Z,988.96
2018-09-14T01:21:30.524Z,988.90
2018-09-14T01:22:30.712Z,988.90
2018-09-14T01:23:30.907Z,988.90
2018-09-14T01:24:31.111Z,988.92
2018-09-14T01:25:31.296Z,988.90
2018-09-14T01:26:31.491Z,988.92
2018-09-14T01:27:31.721Z,988.89
2018-09-14T01:28:31.866Z,988.87
2018-09-14T01:29:32.061Z,988.86
2018-09-14T01:30:32.246Z,988.88
2018-09-14T01:31:32.445Z,988.87
2018-09-14T01:32:32.633Z,988.84
2018-09-14T01:33:32.835Z,988.86
2018-09-14T01:34:33.015Z,988.86
2018-09-14T01:35:33.205Z,988.83
2018-09-14T01:36:33.395Z,988.85
2018-09-14T01:37:33.587Z,988.86
2018-09-14T01:38:33.769Z,988.84
2018-09-14T01:39:33.963Z,988.87
2018-09-14T01:40:34.152Z,988.81
2018-09-14T01:41:34.343Z,988.83
2018-09-14T01:42:34.531Z,988.80
2018-09-14T01:43:34.719Z,988.77
2018-09-14T01:44:34.911Z,988.77
2018-09-14T01:45:35.105Z,988.72
2018-09-14T01:46:35.294Z,988.70
2018-09-14T01:47:35.481Z,988.71
2018-09-14T01:48:35.680Z,988.68
2018-09-14T01:49:35.862Z,988.64
2018-09-14T01:50:36.054Z,988.59
2018-09-14T01:51:36.244Z,988.55
2018-09-14T01:52:36.433Z,988.57
2018-09-14T01:53:36.622Z,988.55
2018-09-14T01:54:36.823Z,988.60
2018-09-14T01:55:37.002Z,988.60
2018-09-14T01:56:37.193Z,988.62
2018-09-14T01:57:37.382Z,988.63
2018-09-14T01:58:37.574Z,988.62
2018-09-14T01:59:37.757Z,988.57
2018-09-14T02:00:37.957Z,988.64
2018-09-14T02:01:38.139Z,988.59
2018-09-14T02:02:38.328Z,988.56
2018-09-14T02:03:38.518Z,988.54
2018-09-14T02:04:38.711Z,988.54
2018-09-14T02:05:38.896Z,988.54
2018-09-14T02:06:39.093Z,988.50
2018-09-14T02:07:39.287Z,988.55
2018-09-14T02:08:39.472Z,988.60
2018-09-14T02:09:39.661Z,988.59
2018-09-14T02:10:39.847Z,988.55
2018-09-14T02:11:40.037Z,988.57
2018-09-14T02:12:40.228Z,988.61
2018-09-14T02:13:40.416Z,988.57
2018-09-14T02:14:40.612Z,988.55
2018-09-14T02:15:40.795Z,988.57
2018-09-14T02:16:40.992Z,988.54
2018-09-14T02:17:41.176Z,988.55
2018-09-14T02:18:41.364Z,988.54
2018-09-14T02:19:41.548Z,988.51
2018-09-14T02:20:41.737Z,988.50
2018-09-14T02:21:41.927Z,988.51
2018-09-14T02:22:42.122Z,988.49
2018-09-14T02:23:42.314Z,988.48
2018-09-14T02:24:42.507Z,988.49
2018-09-14T02:25:42.714Z,988.47
2018-09-14T02:26:42.897Z,988.48
2018-09-14T02:27:43.081Z,988.45
2018-09-14T02:28:43.274Z,988.42
2018-09-14T02:29:43.465Z,988.44
2018-09-14T02:30:43.651Z,988.42
2018-09-14T02:31:43.838Z,988.43
2018-09-14T02:32:44.032Z,988.44
2018-09-14T02:33:44.219Z,988.38
2018-09-14T02:34:44.413Z,988.43
2018-09-14T02:35:44.602Z,988.46
2018-09-14T02:36:44.798Z,988.45
2018-09-14T02:37:44.995Z,988.44
2018-09-14T02:38:45.186Z,988.45
2018-09-14T02:39:45.370Z,988.48
2018-09-14T02:40:45.561Z,988.46
2018-09-14T02:41:45.755Z,988.47
2018-09-14T02:42:45.957Z,988.50
2018-09-14T02:43:46.140Z,988.51
2018-09-14T02:44:46.333Z,988.53
2018-09-14T02:45:46.518Z,988.55
2018-09-14T02:46:46.714Z,988.56
2018-09-14T02:47:46.902Z,988.55
2018-09-14T02:48:47.097Z,988.58
2018-09-14T02:49:47.281Z,988.61
2018-09-14T02:50:47.474Z,988.56
2018-09-14T02:51:47.660Z,988.59
2018-09-14T02:52:47.850Z,988.59
2018-09-14T02:53:48.041Z,988.61
2018-09-14T02:54:48.227Z,988.60
2018-09-14T02:55:48.418Z,988.58
2018-09-14T02:56:48.611Z,988.61
2018-09-14T02:57:48.804Z,988.59
2018-09-14T02:58:49.000Z,988.53
2018-09-14T02:59:49.188Z,988.58
2018-09-14T03:00:49.376Z,988.58
2018-09-14T03:01:49.572Z,988.50
2018-09-14T03:02:49.762Z,988.51
2018-09-14T03:03:49.950Z,988.54
2018-09-14T03:04:50.145Z,988.47
2018-09-14T03:05:50.340Z,988.49
2018-09-14T03:06:50.524Z,988.47
2018-09-14T03:07:50.719Z,988.48
2018-09-14T03:08:50.904Z,988.48
2018-09-14T03:09:51.093Z,988.46
2018-09-14T03:10:51.281Z,988.46
2018-09-14T03:11:51.479Z,988.46
2018-09-14T03:12:51.671Z,988.46
2018-09-14T03:13:51.860Z,988.47
2018-09-14T03:14:52.053Z,988.46
2018-09-14T03:15:52.242Z,988.49
2018-09-14T03:16:52.435Z,988.51
2018-09-14T03:17:52.623Z,988.54
2018-09-14T03:18:52.812Z,988.54
2018-09-14T03:19:53.002Z,988.52
2018-09-14T03:20:53.189Z,988.51
2018-09-14T03:21:53.382Z,988.56
2018-09-14T03:22:53.573Z,988.54
2018-09-14T03:23:53.759Z,988.55
2018-09-14T03:24:53.949Z,988.52
2018-09-14T03:25:54.150Z,988.55
2018-09-14T03:26:54.347Z,988.57
2018-09-14T03:27:54.537Z,988.55
2018-09-14T03:28:54.724Z,988.54
2018-09-14T03:29:54.911Z,988.58
2018-09-14T03:30:55.103Z,988.58
2018-09-14T03:31:55.290Z,988.62
2018-09-14T03:32:55.488Z,988.61
2018-09-14T03:33:55.681Z,988.63
2018-09-14T03:34:55.869Z,988.61
2018-09-14T03:35:56.061Z,988.64
2018-09-14T03:36:56.253Z,988.58
2018-09-14T03:37:56.444Z,988.63
2018-09-14T03:38:56.644Z,988.63
2018-09-14T03:39:56.823Z,988.60
2018-09-14T03:40:57.012Z,988.65
2018-09-14T03:41:57.218Z,988.64
2018-09-14T03:42:57.402Z,988.64
2018-09-14T03:43:57.594Z,988.66
2018-09-14T03:44:57.787Z,988.66
2018-09-14T03:45:57.975Z,988.71
2018-09-14T03:46:58.164Z,988.71
2018-09-14T03:47:58.352Z,988.68
2018-09-14T03:48:58.538Z,988.69
2018-09-14T03:49:58.731Z,988.73
2018-09-14T03:50:58.917Z,988.74
2018-09-14T03:51:59.104Z,988.75
2018-09-14T03:52:59.297Z,988.71
2018-09-14T03:53:59.488Z,988.75
2018-09-14T03:54:59.680Z,988.75
2018-09-14T03:55:59.872Z,988.74
2018-09-14T03:57:00.065Z,988.73
2018-09-14T03:58:00.253Z,988.76
2018-09-14T03:59:00.440Z,988.79
2018-09-14T04:00:00.633Z,988.75
2018-09-14T04:01:00.820Z,988.76
2018-09-14T04:02:01.009Z,988.74
2018-09-14T04:03:01.198Z,988.78
2018-09-14T04:04:01.386Z,988.74
2018-09-14T04:05:01.576Z,988.72
2018-09-14T04:06:01.768Z,988.71
2018-09-14T04:07:01.953Z,988.74
2018-09-14T04:08:02.147Z,988.75
2018-09-14T04:09:02.341Z,988.69
2018-09-14T04:10:02.529Z,988.72
2018-09-14T04:11:02.724Z,988.72
2018-09-14T04:12:02.910Z,988.72
2018-09-14T04:13:03.104Z,988.68
2018-09-14T04:14:03.297Z,988.70
2018-09-14T04:15:03.486Z,988.68
2018-09-14T04:16:03.675Z,988.66
2018-09-14T04:17:03.869Z,988.72
2018-09-14T04:18:04.061Z,988.74
2018-09-14T04:19:04.254Z,988.74
2018-09-14T04:20:04.445Z,988.73
2018-09-14T04:21:04.631Z,988.76
2018-09-14T04:22:04.820Z,988.71
2018-09-14T04:23:05.008Z,988.77
2018-09-14T04:24:05.202Z,988.72
2018-09-14T04:25:05.393Z,988.70
2018-09-14T04:26:05.583Z,988.71
2018-09-14T04:27:05.775Z,988.70
2018-09-14T04:28:05.962Z,988.67
2018-09-14T04:29:06.153Z,988.70
2018-09-14T04:30:06.343Z,988.68
2018-09-14T04:31:06.532Z,988.71
2018-09-14T04:32:06.725Z,988.71
2018-09-14T04:33:06.913Z,988.68
2018-09-14T04:34:07.100Z,988.70
2018-09-14T04:35:07.289Z,988.68
2018-09-14T04:36:07.481Z,988.74
2018-09-14T04:37:07.672Z,988.72
2018-09-14T04:38:07.926Z,988.69
2018-09-14T04:39:08.056Z,988.70
2018-09-14T04:40:08.245Z,988.71
2018-09-14T04:41:08.434Z,988.69
2018-09-14T04:42:08.622Z,988.71
2018-09-14T04:43:08.814Z,988.69
2018-09-14T04:44:09.001Z,988.71
2018-09-14T04:45:09.187Z,988.71
2018-09-14T04:46:09.377Z,988.75
2018-09-14T04:47:09.571Z,988.71
2018-09-14T04:48:10.684Z,988.74
2018-09-14T04:49:10.759Z,988.78
2018-09-14T04:50:10.683Z,988.75
2018-09-14T04:51:10.252Z,988.80
2018-09-14T04:52:10.441Z,988.78
2018-09-14T04:53:10.689Z,988.78
2018-09-14T04:54:10.841Z,988.79
2018-09-14T04:55:11.016Z,988.80
2018-09-14T04:56:11.204Z,988.78
2018-09-14T04:57:11.446Z,988.79
2018-09-14T04:58:11.701Z,988.80
2018-09-14T04:59:11.730Z,988.81
2018-09-14T05:00:11.934Z,988.84
2018-09-14T05:01:12.119Z,988.81
2018-09-14T05:02:12.305Z,988.86
2018-09-14T05:03:12.507Z,988.81
2018-09-14T05:04:12.688Z,988.87
2018-09-14T05:05:12.881Z,988.87
2018-09-14T05:06:13.078Z,988.90
2018-09-14T05:07:13.275Z,988.88
2018-09-14T05:08:13.456Z,988.88
2018-09-14T05:09:13.648Z,988.87
2018-09-14T05:10:13.833Z,988.92
2018-09-14T05:11:14.024Z,988.88
2018-09-14T05:12:14.224Z,988.90
2018-09-14T05:13:14.414Z,988.88
2018-09-14T05:14:14.643Z,988.87
2018-09-14T05:15:14.801Z,988.91
2018-09-14T05:16:14.995Z,988.93
2018-09-14T05:17:15.178Z,988.90
2018-09-14T05:18:15.367Z,988.90
2018-09-14T05:19:15.560Z,988.90
2018-09-14T05:20:15.747Z,988.90
2018-09-14T05:21:15.932Z,988.90
2018-09-14T05:22:16.132Z,988.92
2018-09-14T05:23:16.314Z,988.91
2018-09-14T05:24:16.531Z,988.93
2018-09-14T05:25:16.692Z,988.93
2018-09-14T05:26:16.884Z,988.90
2018-09-14T05:27:17.074Z,988.95
2018-09-14T05:28:17.263Z,988.93
2018-09-14T05:29:17.450Z,988.96
2018-09-14T05:30:17.643Z,988.96
2018-09-14T05:31:17.822Z,988.97
2018-09-14T05:32:18.014Z,989.01
2018-09-14T05:33:18.204Z,989.01
2018-09-14T05:34:18.396Z,988.99
2018-09-14T05:35:18.581Z,988.99
2018-09-14T05:36:18.770Z,989.03
2018-09-14T05:37:18.962Z,989.04
2018-09-14T05:38:19.161Z,989.02
2018-09-14T05:39:19.347Z,989.05
2018-09-14T05:40:19.533Z,989.02
2018-09-14T05:41:19.719Z,989.08
2018-09-14T05:42:19.907Z,989.05
2018-09-14T05:43:20.106Z,989.08
2018-09-14T05:44:20.304Z,989.09
2018-09-14T05:45:20.489Z,989.10
2018-09-14T05:46:20.676Z,989.12
2018-09-14T05:47:20.867Z,989.13
2018-09-14T05:48:21.051Z,989.18
2018-09-14T05:49:21.244Z,989.15
2018-09-14T05:50:21.436Z,989.15
2018-09-14T05:51:21.627Z,989.15
2018-09-14T05:52:21.819Z,989.17
2018-09-14T05:53:22.003Z,989.16
2018-09-14T05:54:22.243Z,989.17
2018-09-14T05:55:22.387Z,989.17
2018-09-14T05:56:22.575Z,989.18
2018-09-14T05:57:22.765Z,989.20
2018-09-14T05:58:22.956Z,989.20
2018-09-14T05:59:23.154Z,989.19
2018-09-14T06:00:23.346Z,989.23
2018-09-14T06:01:23.541Z,989.25
2018-09-14T06:02:23.729Z,989.26
2018-09-14T06:03:23.916Z,989.26
2018-09-14T06:04:24.117Z,989.25
2018-09-14T06:05:24.312Z,989.25
2018-09-14T06:06:24.575Z,989.28
2018-09-14T06:07:24.680Z,989.32
2018-09-14T06:08:24.864Z,989.30
2018-09-14T06:09:25.056Z,989.30
2018-09-14T06:10:25.246Z,989.30
2018-09-14T06:11:25.431Z,989.32
2018-09-14T06:12:25.627Z,989.35
2018-09-14T06:13:25.810Z,989.33
2018-09-14T06:14:26.003Z,989.34
2018-09-14T06:15:26.209Z,989.35
2018-09-14T06:16:26.389Z,989.34
2018-09-14T06:17:26.578Z,989.41
2018-09-14T06:18:26.766Z,989.41
2018-09-14T06:19:26.960Z,989.42
2018-09-14T06:20:27.152Z,989.45
2018-09-14T06:21:27.337Z,989.49
2018-09-14T06:22:27.540Z,989.48
2018-09-14T06:23:27.719Z,989.47
2018-09-14T06:24:27.909Z,989.45
2018-09-14T06:25:28.103Z,989.48
2018-09-14T06:26:28.285Z,989.48
2018-09-14T06:27:28.476Z,989.48
2018-09-14T06:28:28.674Z,989.47
2018-09-14T06:29:28.862Z,989.51
2018-09-14T06:30:29.103Z,989.50
2018-09-14T06:31:29.241Z,989.50
2018-09-14T06:32:29.435Z,989.47
2018-09-14T06:33:29.621Z,989.46
2018-09-14T06:34:29.811Z,989.48
2018-09-14T06:35:30.001Z,989.47
2018-09-14T06:36:30.196Z,989.51
2018-09-14T06:37:30.382Z,989.53
2018-09-14T06:38:30.570Z,989.51
2018-09-14T06:39:30.771Z,989.52
2018-09-14T06:40:30.960Z,989.49
2018-09-14T06:41:31.148Z,989.46
2018-09-14T06:42:31.339Z,989.46
2018-09-14T06:43:31.535Z,989.48
2018-09-14T06:44:31.722Z,989.51
2018-09-14T06:45:31.994Z,989.50
2018-09-14T06:46:32.106Z,989.50
2018-09-14T06:47:32.295Z,989.54
2018-09-14T06:48:32.486Z,989.54
2018-09-14T06:49:32.677Z,989.52
2018-09-14T06:50:32.867Z,989.53
2018-09-14T06:51:33.049Z,989.55
2018-09-14T06:52:33.241Z,989.54
2018-09-14T06:53:33.427Z,989.58
2018-09-14T06:54:33.618Z,989.58
2018-09-14T06:55:33.813Z,989.61
2018-09-14T06:56:34.000Z,989.63
2018-09-14T06:57:34.193Z,989.62
2018-09-14T06:58:34.379Z,989.64
2018-09-14T06:59:34.567Z,989.66
2018-09-14T07:00:34.779Z,989.67
2018-09-14T07:01:34.958Z,989.66
2018-09-14T07:02:35.143Z,989.64
2018-09-14T07:03:35.332Z,989.66
2018-09-14T07:04:35.521Z,989.69
2018-09-14T07:05:35.709Z,989.69
2018-09-14T07:06:35.924Z,989.69
2018-09-14T07:07:36.089Z,989.71
2018-09-14T07:08:36.277Z,989.69
2018-09-14T07:09:36.469Z,989.70
2018-09-14T07:10:36.657Z,989.66
2018-09-14T07:11:36.875Z,989.67
2018-09-14T07:12:37.037Z,989.68
2018-09-14T07:13:37.224Z,989.65
2018-09-14T07:14:37.414Z,989.63
2018-09-14T07:15:37.606Z,989.67
2018-09-14T07:16:37.797Z,989.67
2018-09-14T07:17:37.988Z,989.70
2018-09-14T07:18:38.184Z,989.72
2018-09-14T07:19:38.369Z,989.74
2018-09-14T07:20:38.553Z,989.73
2018-09-14T07:21:38.804Z,989.73
2018-09-14T07:22:38.936Z,989.74
2018-09-14T07:23:39.122Z,989.77
2018-09-14T07:24:39.379Z,989.82
2018-09-14T07:25:39.506Z,989.82
2018-09-14T07:26:39.696Z,989.80
2018-09-14T07:27:39.892Z,989.86
2018-09-14T07:28:40.103Z,989.88
2018-09-14T07:29:40.269Z,989.91
2018-09-14T07:30:40.470Z,989.93
2018-09-14T07:31:40.761Z,989.90
2018-09-14T07:32:40.854Z,989.90
2018-09-14T07:33:41.048Z,989.86
2018-09-14T07:34:41.233Z,989.94
2018-09-14T07:35:41.424Z,989.93
2018-09-14T07:36:41.612Z,989.92
2018-09-14T07:37:41.811Z,989.93
2018-09-14T07:38:42.001Z,989.91
2018-09-14T07:39:42.199Z,989.94
2018-09-14T07:40:42.404Z,989.99
2018-09-14T07:41:42.592Z,989.99
2018-09-14T07:42:42.784Z,990.00
2018-09-14T07:43:42.973Z,990.04
2018-09-14T07:44:43.164Z,990.04
2018-09-14T07:45:43.365Z,990.05
2018-09-14T07:46:43.561Z,990.03
2018-09-14T07:47:43.753Z,990.05
2018-09-14T07:48:43.946Z,990.02
2018-09-14T07:49:44.134Z,990.05
2018-09-14T07:50:44.327Z,990.04
2018-09-14T07:51:44.515Z,990.03
2018-09-14T07:52:44.710Z,990.11
2018-09-14T07:53:44.901Z,990.10
2018-09-14T07:54:45.089Z,990.11
2018-09-14T07:55:45.286Z,990.09
2018-09-14T07:56:45.494Z,990.10
2018-09-14T07:57:45.667Z,990.07
2018-09-14T07:58:45.857Z,990.12
2018-09-14T07:59:46.049Z,990.15
2018-09-14T08:00:46.247Z,990.13
2018-09-14T08:01:46.432Z,990.15
2018-09-14T08:02:46.628Z,990.14
2018-09-14T08:03:46.818Z,990.15
2018-09-14T08:04:47.005Z,990.13
2018-09-14T08:05:47.200Z,990.18
2018-09-14T08:06:47.393Z,990.16
2018-09-14T08:07:47.584Z,990.15
2018-09-14T08:08:47.780Z,990.19
2018-09-14T08:09:47.971Z,990.18
2018-09-14T08:10:48.165Z,990.17
2018-09-14T08:11:48.390Z,990.22
2018-09-14T08:12:48.548Z,990.26
2018-09-14T08:13:48.740Z,990.25
2018-09-14T08:14:48.944Z,990.20
2018-09-14T08:15:49.129Z,990.22
2018-09-14T08:16:49.325Z,990.24
2018-09-14T08:17:49.517Z,990.25
2018-09-14T08:18:49.707Z,990.25
2018-09-14T08:19:49.911Z,990.20
2018-09-14T08:20:50.129Z,990.17
2018-09-14T08:21:50.429Z,990.21
2018-09-14T08:22:50.512Z,990.17
2018-09-14T08:23:50.714Z,990.26
2018-09-14T08:24:50.907Z,990.30
2018-09-14T08:25:51.113Z,990.27
2018-09-14T08:26:51.391Z,990.27
2018-09-14T08:27:51.494Z,990.28
2018-09-14T08:28:51.695Z,990.27
2018-09-14T08:29:51.885Z,990.28
2018-09-14T08:30:52.086Z,990.29
2018-09-14T08:31:52.279Z,990.34
2018-09-14T08:32:52.475Z,990.70
2018-09-14T08:33:52.683Z,990.74
2018-09-14T08:34:52.877Z,990.66
2018-09-14T08:35:53.077Z,990.56
2018-09-14T08:36:53.272Z,990.59
2018-09-14T08:37:53.465Z,990.52
2018-09-14T08:38:53.663Z,990.52
2018-09-14T08:39:53.857Z,990.52
2018-09-14T08:40:54.054Z,990.50
2018-09-14T08:41:54.247Z,990.45
2018-09-14T08:42:54.444Z,990.50
2018-09-14T08:43:54.638Z,990.53
2018-09-14T08:44:54.834Z,990.52
2018-09-14T08:45:55.033Z,990.58
2018-09-14T08:46:55.229Z,990.52
2018-09-14T08:47:55.456Z,990.49
2018-09-14T08:48:55.628Z,990.42
2018-09-14T08:49:55.825Z,990.43
2018-09-14T08:50:56.019Z,990.36
2018-09-14T08:51:56.217Z,990.43
2018-09-14T08:52:56.413Z,990.55
2018-09-14T08:53:56.606Z,990.71
2018-09-14T08:54:56.805Z,990.66
2018-09-14T08:55:57.002Z,990.76
2018-09-14T08:56:57.200Z,990.77
2018-09-14T08:57:57.408Z,990.78
2018-09-14T08:58:57.599Z,990.79
2018-09-14T08:59:57.800Z,990.84
2018-09-14T09:00:58.056Z,990.69
2018-09-14T09:01:58.198Z,990.76
2018-09-14T09:02:58.403Z,990.80
2018-09-14T09:03:58.657Z,990.90
2018-09-14T09:04:58.804Z,990.63
2018-09-14T09:05:59.014Z,990.49
2018-09-14T09:06:59.204Z,990.79
2018-09-14T09:07:59.410Z,990.79
2018-09-14T09:08:59.625Z,990.75
2018-09-14T09:09:59.807Z,990.75
2018-09-14T09:11:00.009Z,990.73
2018-09-14T09:12:00.215Z,990.75
2018-09-14T09:13:00.414Z,990.74
2018-09-14T09:14:00.616Z,990.74
2018-09-14T09:15:00.818Z,990.75
2018-09-14T09:16:01.017Z,990.73
2018-09-14T09:17:01.217Z,990.75
2018-09-14T09:18:01.417Z,990.72
2018-09-14T09:19:01.620Z,990.77
2018-09-14T09:20:01.831Z,990.75
2018-09-14T09:21:02.040Z,990.75
2018-09-14T09:22:02.244Z,990.72
2018-09-14T09:23:02.448Z,990.78
2018-09-14T09:24:02.648Z,990.77
2018-09-14T09:25:02.849Z,990.79
2018-09-14T09:26:03.051Z,990.78
2018-09-14T09:27:03.263Z,990.76
2018-09-14T09:28:03.465Z,990.76
2018-09-14T09:29:03.663Z,990.80
2018-09-14T09:30:03.868Z,990.75
2018-09-14T09:31:04.076Z,990.74
2018-09-14T09:32:04.277Z,990.74
2018-09-14T09:33:04.477Z,990.75
2018-09-14T09:34:04.680Z,990.75
2018-09-14T09:35:04.878Z,990.74
2018-09-14T09:36:05.090Z,990.69
2018-09-14T09:37:05.289Z,990.67
2018-09-14T09:38:05.494Z,990.67
2018-09-14T09:39:05.710Z,990.68
2018-09-14T09:40:05.919Z,990.63
2018-09-14T09:41:06.125Z,990.64
2018-09-14T09:42:06.328Z,990.62
2018-09-14T09:43:06.608Z,990.65
2018-09-14T09:44:06.747Z,990.61
2018-09-14T09:45:06.929Z,990.58
2018-09-14T09:46:07.132Z,990.60
2018-09-14T09:47:07.338Z,990.55
2018-09-14T09:48:07.545Z,990.57
2018-09-14T09:49:07.743Z,990.61
2018-09-14T09:50:07.944Z,990.59
2018-09-14T09:51:08.189Z,990.55
2018-09-14T09:52:08.352Z,990.52
2018-09-14T09:53:08.554Z,990.50
2018-09-14T09:54:08.760Z,990.48
2018-09-14T09:55:08.961Z,990.52
2018-09-14T09:56:09.167Z,990.51
2018-09-14T09:57:09.377Z,990.52
2018-09-14T09:58:09.571Z,990.45
2018-09-14T09:59:09.773Z,990.49
2018-09-14T10:00:09.978Z,990.50
2018-09-14T10:01:10.185Z,990.47
2018-09-14T10:02:10.385Z,990.50
2018-09-14T10:03:10.592Z,990.47
2018-09-14T10:04:10.872Z,990.52
2018-09-14T10:05:11.005Z,990.48
2018-09-14T10:06:11.208Z,990.45
2018-09-14T10:07:11.412Z,990.46
2018-09-14T10:08:11.619Z,990.41
2018-09-14T10:09:11.824Z,990.30
2018-09-14T10:10:12.035Z,990.39
2018-09-14T10:11:12.243Z,990.44
2018-09-14T10:12:12.444Z,990.47
2018-09-14T10:13:12.653Z,990.10
2018-09-14T10:14:12.918Z,990.17
2018-09-14T10:15:13.056Z,990.50
2018-09-14T10:16:13.259Z,990.32
2018-09-14T10:17:13.456Z,990.18
2018-09-14T10:18:13.652Z,990.37
2018-09-14T10:19:13.872Z,990.25
2018-09-14T10:20:14.068Z,990.15
2018-09-14T10:21:14.391Z,990.18
2018-09-14T10:22:14.480Z,990.38
2018-09-14T10:23:14.684Z,990.13
2018-09-14T10:24:14.888Z,990.20
2018-09-14T10:25:15.093Z,990.13
2018-09-14T10:26:15.292Z,990.12
2018-09-14T10:27:15.495Z,990.33
2018-09-14T10:28:15.694Z,990.14
2018-09-14T10:29:15.902Z,990.13
2018-09-14T10:30:16.095Z,990.09
2018-09-14T10:31:16.298Z,990.14
2018-09-14T10:32:16.499Z,990.01
2018-09-14T10:33:16.703Z,989.97
2018-09-14T10:34:16.918Z,989.94
2018-09-14T10:35:17.121Z,989.97
2018-09-14T10:36:17.320Z,989.95
2018-09-14T10:37:17.532Z,989.97
2018-09-14T10:38:17.732Z,989.96
2018-09-14T10:39:17.933Z,989.93
2018-09-14T10:40:18.145Z,989.87
2018-09-14T10:41:18.333Z,989.90
2018-09-14T10:42:18.547Z,989.87
2018-09-14T10:43:18.749Z,989.86
2018-09-14T10:44:18.949Z,989.84
2018-09-14T10:45:19.212Z,989.80
2018-09-14T10:46:19.353Z,989.80
2018-09-14T10:47:19.562Z,989.79
2018-09-14T10:48:19.757Z,989.74
2018-09-14T10:49:19.956Z,989.78
2018-09-14T10:50:20.148Z,989.75
2018-09-14T10:51:20.354Z,989.75
2018-09-14T10:52:20.597Z,989.71
2018-09-14T10:53:20.752Z,989.73
2018-09-14T10:54:20.960Z,989.74
2018-09-14T10:55:21.176Z,989.74
2018-09-14T10:56:21.366Z,989.71
2018-09-14T10:57:21.563Z,989.74
2018-09-14T10:58:21.763Z,989.71
2018-09-14T10:59:21.961Z,989.70
2018-09-14T11:00:22.155Z,989.63
2018-09-14T11:01:22.354Z,989.62
2018-09-14T11:02:22.566Z,989.60
2018-09-14T11:03:22.763Z,989.63
2018-09-14T11:04:22.974Z,989.63
2018-09-14T11:05:23.159Z,989.62
2018-09-14T11:06:23.357Z,989.63
2018-09-14T11:07:23.551Z,989.64
2018-09-14T11:08:23.754Z,989.68
2018-09-14T11:09:23.958Z,989.66
2018-09-14T11:10:24.155Z,989.77
2018-09-14T11:11:24.355Z,989.66
2018-09-14T11:12:24.552Z,989.62
2018-09-14T11:13:24.743Z,989.87
2018-09-14T11:14:24.939Z,989.67
2018-09-14T11:15:25.139Z,989.68
2018-09-14T11:16:25.337Z,989.68
2018-09-14T11:17:25.536Z,989.69
2018-09-14T11:18:25.791Z,989.59
2018-09-14T11:19:25.932Z,989.91
2018-09-14T11:20:26.161Z,989.91
2018-09-14T11:21:26.351Z,989.86
2018-09-14T11:22:26.555Z,989.83
2018-09-14T11:23:26.755Z,989.85
2018-09-14T11:24:26.942Z,989.85
2018-09-14T11:25:27.225Z,989.84
2018-09-14T11:26:27.335Z,989.80
2018-09-14T11:27:27.526Z,989.79
2018-09-14T11:28:27.722Z,989.77
2018-09-14T11:29:27.921Z,989.73
2018-09-14T11:30:28.119Z,989.70
2018-09-14T11:31:28.316Z,989.68
2018-09-14T11:32:28.576Z,989.37
2018-09-14T11:33:28.724Z,989.58
2018-09-14T11:34:28.931Z,989.55
2018-09-14T11:35:29.148Z,989.59
2018-09-14T11:36:29.349Z,989.55
2018-09-14T11:37:29.573Z,989.46
2018-09-14T11:38:29.885Z,989.56
2018-09-14T11:39:29.950Z,989.34
2018-09-14T11:40:30.155Z,989.29
2018-09-14T11:41:30.349Z,989.50
2018-09-14T11:42:30.550Z,989.55
2018-09-14T11:43:30.749Z,989.41
2018-09-14T11:44:31.022Z,989.36
2018-09-14T11:45:31.145Z,989.40
2018-09-14T11:46:31.375Z,989.46
2018-09-14T11:47:31.549Z,989.39
2018-09-14T11:48:31.742Z,989.38
2018-09-14T11:49:31.945Z,989.25
2018-09-14T11:50:32.139Z,989.10
2018-09-14T11:51:32.337Z,989.33
2018-09-14T11:52:32.532Z,989.30
2018-09-14T11:53:32.747Z,989.26
2018-09-14T11:54:32.929Z,989.23
2018-09-14T11:55:33.128Z,988.96
2018-09-14T11:56:33.335Z,989.23
2018-09-14T11:57:33.528Z,989.22
2018-09-14T11:58:33.732Z,989.18
2018-09-14T11:59:33.926Z,989.06
2018-09-14T12:00:34.125Z,988.96
2018-09-14T12:01:34.325Z,988.96
2018-09-14T12:02:34.522Z,988.95
2018-09-14T12:03:34.716Z,988.92
2018-09-14T12:04:34.914Z,988.87
2018-09-14T12:05:35.122Z,988.87
2018-09-14T12:06:35.319Z,988.91
2018-09-14T12:07:35.514Z,988.91
2018-09-14T12:08:35.712Z,988.91
2018-09-14T12:09:35.906Z,988.92
2018-09-14T12:10:36.108Z,988.84
2018-09-14T12:11:36.317Z,988.84
2018-09-14T12:12:36.515Z,988.85
2018-09-14T12:13:36.749Z,988.83
2018-09-14T12:14:36.910Z,988.82
2018-09-14T12:15:37.107Z,988.96
2018-09-14T12:16:37.302Z,988.87
2018-09-14T12:17:37.632Z,988.79
2018-09-14T12:18:37.711Z,988.79
2018-09-14T12:19:37.912Z,988.78
2018-09-14T12:20:38.105Z,988.80
2018-09-14T12:21:38.305Z,988.77
2018-09-14T12:22:38.510Z,988.75
2018-09-14T12:23:38.729Z,988.79
2018-09-14T12:24:38.900Z,988.67
2018-09-14T12:25:39.093Z,988.70
2018-09-14T12:26:39.358Z,988.65
2018-09-14T12:27:39.495Z,988.62
2018-09-14T12:28:39.693Z,988.63
2018-09-14T12:29:39.888Z,988.67
2018-09-14T12:30:40.081Z,988.63